Aérodrome :
LOGIN :

S'inscrire | Disclaimer

   EN    FR    IT 

 










Légende :    VFR   VFR Marginal   IFR   IFR Intensif   IFR Très Intensif
Visi : 
Plafond : 
>= 8 km
>= 3000ft
5 à 8 km
1000 à 3000 ft
1500m à 5 km
500 à 1000 ft
800 à 1500m
200 à 500 ft
< 800m
< 200 ft
Symboles :   Orages  Brouillard  Fortes neiges  Fortes précipitations  Vent > 20 kt
SIGMETs :   Divers  Orages  Givrage  Turbulence  Onde Orograph.  Cendres Volcan.






- Altitude de l'aérodrome : 80 ft
- Code IATA : LPL


EGGP - Liverpool John Lennon

DERNIER METAR :
  • 011450Z 30015KT 9999 SCT019 BKN025 09/04 Q1022

METARs EXPIRÉS :
  • 011420Z 30015KT 9999 SCT021 SCT026 09/05 Q1022
  • 011350Z 31012KT 280V350 9999 SCT021 SCT026 10/04 Q1023
  • 011320Z 29013KT 9999 SCT021 09/04 Q1023
  • 011250Z 31012KT 9999 SCT021 10/05 Q1023
  • 011220Z 32012KT 290V350 9999 SCT027 09/03 Q1024

TAF TAF EGGP
Valide du 01 à 12h jusqu'au 02 à 12h UTC


011102Z 0112/0212 31011KT 9999 BKN040
PROB30
TEMPO 0112/0118 8000 -SHRA
BECMG 0121/0124 BKN014
PROB30
TEMPO 0203/0212 BKN008
TEMPO 0209/0212 27018G28KT
PROB30
TEMPO 0209/0212 5000 RA
ATIS : +44 151 907 2000 (option 5 or ext 5150)
Météo : +44 871 750 5150



MET'MAP, la Météo Aéronautique d'un coup d'oeil ! - Copyright ORBIFLY Décembre 2007 - Disclaimer

ORBIFLY MET'MAP TEAM :

Programmation & Développement : Alexandra Zaïnal
Sur une idée originale de : Baudouin d'Aumeries
Assistance à la programmation : Marc-Olivier Méhu
Soutien technique & logistique : Manuel Goepfert

Contact : metmap@orbifly.com




SOURCES & CREDITS :

   NOAA